createdAt,value
2023-05-08T00:02:10.254Z,2.38
2023-05-08T00:04:37.237Z,2.00
2023-05-08T00:07:04.528Z,2.03
2023-05-08T00:09:31.910Z,1.98
2023-05-08T00:11:59.272Z,2.65
2023-05-08T00:14:26.196Z,2.55
2023-05-08T00:16:53.084Z,2.13
2023-05-08T00:19:20.015Z,8.27
2023-05-08T00:21:46.966Z,3.38
2023-05-08T00:24:13.931Z,2.47
2023-05-08T00:26:42.045Z,2.72
2023-05-08T00:29:09.102Z,2.80
2023-05-08T00:31:36.059Z,3.45
2023-05-08T00:34:03.119Z,4.85
2023-05-08T00:36:30.028Z,2.42
2023-05-08T00:38:56.845Z,1.95
2023-05-08T00:41:24.135Z,2.50
2023-05-08T00:43:51.526Z,3.28
2023-05-08T00:46:18.625Z,2.70
2023-05-08T00:48:47.183Z,3.38
2023-05-08T00:51:14.859Z,2.25
2023-05-08T00:53:45.282Z,2.38
2023-05-08T00:56:14.472Z,5.20
2023-05-08T00:58:42.272Z,3.30
2023-05-08T01:01:10.935Z,2.00
2023-05-08T01:03:38.446Z,3.45
2023-05-08T01:06:06.811Z,2.78
2023-05-08T01:08:34.055Z,2.38
2023-05-08T01:11:23.606Z,4.07
2023-05-08T01:13:52.359Z,2.30
2023-05-08T01:16:47.774Z,3.03
2023-05-08T01:19:42.368Z,2.83
2023-05-08T01:22:40.342Z,2.58
2023-05-08T01:25:29.686Z,2.58
2023-05-08T01:28:42.183Z,4.20
2023-05-08T01:31:21.005Z,2.03
2023-05-08T01:34:10.614Z,4.72
2023-05-08T01:37:08.679Z,2.00
2023-05-08T01:40:06.417Z,2.25
2023-05-08T01:42:45.468Z,2.10
2023-05-08T01:45:26.915Z,3.80
2023-05-08T01:48:04.944Z,1.85
2023-05-08T01:50:44.907Z,3.35
2023-05-08T01:53:26.286Z,3.65
2023-05-08T01:56:00.835Z,2.05
2023-05-08T01:58:30.706Z,2.55
2023-05-08T02:00:59.056Z,2.65
2023-05-08T02:03:27.406Z,1.85
2023-05-08T02:05:57.256Z,2.30
2023-05-08T02:08:25.497Z,5.07
2023-05-08T02:10:53.789Z,1.90
2023-05-08T02:13:22.013Z,3.33
2023-05-08T02:15:50.964Z,4.25
2023-05-08T02:18:22.186Z,1.73
2023-05-08T02:20:51.034Z,2.13
2023-05-08T02:23:23.691Z,2.50
2023-05-08T02:25:51.368Z,2.67
2023-05-08T02:28:19.526Z,1.83
2023-05-08T02:30:47.498Z,3.03
2023-05-08T02:33:16.208Z,2.00
2023-05-08T02:35:46.286Z,4.13
2023-05-08T02:38:15.809Z,2.97
2023-05-08T02:40:48.541Z,2.88
2023-05-08T02:43:15.984Z,3.10
2023-05-08T02:46:15.768Z,2.63
2023-05-08T02:48:59.080Z,2.78
2023-05-08T02:51:37.918Z,1.98
2023-05-08T02:54:18.130Z,3.33
2023-05-08T02:56:56.051Z,3.95
2023-05-08T02:59:31.365Z,3.35
2023-05-08T03:02:10.943Z,2.22
2023-05-08T03:04:45.521Z,3.13
2023-05-08T03:07:13.535Z,3.03
2023-05-08T03:09:45.209Z,2.65
2023-05-08T03:12:16.352Z,3.20
2023-05-08T03:14:57.160Z,3.85
2023-05-08T03:17:26.390Z,3.00
2023-05-08T03:19:58.383Z,3.17
2023-05-08T03:22:26.729Z,3.63
2023-05-08T03:24:54.835Z,3.15
2023-05-08T03:27:22.486Z,4.80
2023-05-08T03:29:52.342Z,2.67
2023-05-08T03:32:20.072Z,2.53
2023-05-08T03:34:48.630Z,3.33
2023-05-08T03:37:15.623Z,4.38
2023-05-08T03:39:42.896Z,3.17
2023-05-08T03:42:11.062Z,2.65
2023-05-08T03:44:39.348Z,2.85
2023-05-08T03:47:06.700Z,3.70
2023-05-08T03:49:35.083Z,2.92
2023-05-08T03:52:03.561Z,4.30
2023-05-08T03:54:30.455Z,3.75
2023-05-08T03:56:57.389Z,2.88
2023-05-08T03:59:50.132Z,4.05
2023-05-08T04:02:44.174Z,3.88
2023-05-08T04:05:29.097Z,6.55
2023-05-08T04:08:28.407Z,4.10
2023-05-08T04:11:08.755Z,3.40
2023-05-08T04:13:43.312Z,3.97
2023-05-08T04:16:16.728Z,6.43
2023-05-08T04:18:48.096Z,9.82
2023-05-08T04:21:20.318Z,3.50
2023-05-08T04:23:50.639Z,5.97
2023-05-08T04:26:19.041Z,5.05
2023-05-08T04:28:46.986Z,7.32
2023-05-08T04:31:16.329Z,3.65
2023-05-08T04:33:45.183Z,4.25
2023-05-08T04:36:13.565Z,5.47
2023-05-08T04:38:41.171Z,6.85
2023-05-08T04:41:08.782Z,3.88
2023-05-08T04:43:36.599Z,6.28
2023-05-08T04:46:05.424Z,4.47
2023-05-08T04:48:33.858Z,3.50
2023-05-08T04:51:01.163Z,3.47
2023-05-08T04:53:28.146Z,3.97
2023-05-08T04:55:55.090Z,3.40
2023-05-08T04:58:21.960Z,3.17
2023-05-08T05:00:49.058Z,3.45
2023-05-08T05:03:16.082Z,3.13
2023-05-08T05:05:43.118Z,3.80
2023-05-08T05:08:09.955Z,3.50
2023-05-08T05:10:39.877Z,7.65
2023-05-08T05:13:07.142Z,3.25
2023-05-08T05:15:34.066Z,4.70
2023-05-08T05:18:01.172Z,3.10
2023-05-08T05:20:28.666Z,3.35
2023-05-08T05:22:55.607Z,2.88
2023-05-08T05:25:22.480Z,4.53
2023-05-08T05:27:49.303Z,4.32
2023-05-08T05:30:16.382Z,5.97
2023-05-08T05:32:43.784Z,5.00
2023-05-08T05:35:11.480Z,2.60
2023-05-08T05:37:38.685Z,3.47
2023-05-08T05:40:06.444Z,3.08
2023-05-08T05:42:33.341Z,3.38
2023-05-08T05:45:01.931Z,3.03
2023-05-08T05:47:28.965Z,3.22
2023-05-08T05:49:55.887Z,3.38
2023-05-08T05:52:22.736Z,4.57
2023-05-08T05:54:49.622Z,3.42
2023-05-08T05:57:16.507Z,3.45
2023-05-08T05:59:43.542Z,6.38
2023-05-08T06:02:14.491Z,4.20
2023-05-08T06:04:41.506Z,5.63
2023-05-08T06:07:08.444Z,8.63
2023-05-08T06:09:36.517Z,9.68
2023-05-08T06:12:03.930Z,12.85
2023-05-08T06:14:30.770Z,7.35
2023-05-08T06:16:58.139Z,9.80
2023-05-08T06:19:25.045Z,4.60
2023-05-08T06:21:52.354Z,8.52
2023-05-08T06:24:19.316Z,5.82
2023-05-08T06:26:46.948Z,5.65
2023-05-08T06:29:13.838Z,5.30
2023-05-08T06:31:40.765Z,5.13
2023-05-08T06:34:08.002Z,5.78
2023-05-08T06:36:34.909Z,3.50
2023-05-08T06:39:05.132Z,4.53
2023-05-08T06:41:32.423Z,5.35
2023-05-08T06:43:59.792Z,5.10
2023-05-08T06:46:27.190Z,3.97
2023-05-08T06:48:54.093Z,5.03
2023-05-08T06:51:23.251Z,4.40
2023-05-08T06:53:50.682Z,3.88
2023-05-08T06:56:17.531Z,5.28
2023-05-08T06:58:48.399Z,4.78
2023-05-08T07:01:24.030Z,3.60
2023-05-08T07:03:51.318Z,4.80
2023-05-08T07:06:18.191Z,4.43
2023-05-08T07:08:45.535Z,5.60
2023-05-08T07:11:12.392Z,6.57
2023-05-08T07:13:39.249Z,3.75
2023-05-08T07:16:11.017Z,5.25
2023-05-08T07:18:38.292Z,5.50
2023-05-08T07:21:05.191Z,4.25
2023-05-08T07:23:32.536Z,4.43
2023-05-08T07:25:59.966Z,5.15
2023-05-08T07:28:27.928Z,5.60
2023-05-08T07:30:55.392Z,5.35
2023-05-08T07:33:22.775Z,6.80
2023-05-08T07:35:50.203Z,7.93
2023-05-08T07:38:17.355Z,6.32
2023-05-08T07:40:44.721Z,7.35
2023-05-08T07:43:13.247Z,4.28
2023-05-08T07:45:40.084Z,3.90
2023-05-08T07:48:08.172Z,2.67
2023-05-08T07:50:35.073Z,2.05
2023-05-08T07:53:02.446Z,1.30
2023-05-08T07:55:29.422Z,1.38
2023-05-08T07:57:56.367Z,1.30
2023-05-08T08:00:23.426Z,1.65
2023-05-08T08:02:50.475Z,2.38
2023-05-08T08:05:17.463Z,1.05
2023-05-08T08:07:44.450Z,0.95
2023-05-08T08:10:13.110Z,1.77
2023-05-08T08:12:40.005Z,1.92
2023-05-08T08:15:07.653Z,1.38
2023-05-08T08:17:34.592Z,2.97
2023-05-08T08:20:01.562Z,1.60
2023-05-08T08:22:28.462Z,2.72
2023-05-08T08:24:56.645Z,3.65
2023-05-08T08:27:24.130Z,1.52
2023-05-08T08:29:58.484Z,2.00
2023-05-08T08:32:31.733Z,2.08
2023-05-08T08:34:58.590Z,2.58
2023-05-08T08:37:27.983Z,2.10
2023-05-08T08:39:54.835Z,1.67
2023-05-08T08:42:23.481Z,2.35
2023-05-08T08:44:51.389Z,1.55
2023-05-08T08:47:23.385Z,1.40
2023-05-08T08:49:51.888Z,2.33
2023-05-08T08:52:40.487Z,3.75
2023-05-08T08:55:12.407Z,2.00
2023-05-08T08:57:45.761Z,4.60
2023-05-08T09:00:13.968Z,2.60
2023-05-08T09:02:41.041Z,1.80
2023-05-08T09:05:09.039Z,1.55
2023-05-08T09:07:37.875Z,2.47
2023-05-08T09:10:07.528Z,1.90
2023-05-08T09:12:34.375Z,5.65
2023-05-08T09:15:01.302Z,1.52
2023-05-08T09:17:28.634Z,1.40
2023-05-08T09:19:58.080Z,5.78
2023-05-08T09:22:26.587Z,2.05
2023-05-08T09:24:59.111Z,3.92
2023-05-08T09:27:28.221Z,2.70
2023-05-08T09:30:08.774Z,3.65
2023-05-08T09:32:38.200Z,3.20
2023-05-08T09:35:06.755Z,3.60
2023-05-08T09:37:34.102Z,3.38
2023-05-08T09:40:16.829Z,3.30
2023-05-08T09:42:44.055Z,4.47
2023-05-08T09:45:11.802Z,4.43
2023-05-08T09:47:39.773Z,3.72
2023-05-08T09:50:09.561Z,3.78
2023-05-08T09:52:45.865Z,6.28
2023-05-08T09:55:12.729Z,6.38
2023-05-08T09:57:51.652Z,3.63
2023-05-08T10:00:18.805Z,4.25
2023-05-08T10:02:59.506Z,4.35
2023-05-08T10:05:27.059Z,4.55
2023-05-08T10:07:54.065Z,4.70
2023-05-08T10:10:26.804Z,5.43
2023-05-08T10:12:55.906Z,5.18
2023-05-08T10:15:25.363Z,4.88
2023-05-08T10:18:02.851Z,4.38
2023-05-08T10:20:31.181Z,5.80
2023-05-08T10:22:58.929Z,5.40
2023-05-08T10:25:29.322Z,5.03
2023-05-08T10:28:06.938Z,5.38
2023-05-08T10:30:36.252Z,4.97
2023-05-08T10:33:09.436Z,6.57
2023-05-08T10:35:37.823Z,4.90
2023-05-08T10:38:05.314Z,4.07
2023-05-08T10:40:32.203Z,5.15
2023-05-08T10:43:00.008Z,5.97
2023-05-08T10:45:27.519Z,5.57
2023-05-08T10:48:05.560Z,3.85
2023-05-08T10:51:06.192Z,4.85
2023-05-08T10:53:41.186Z,4.13
2023-05-08T10:56:08.075Z,2.65
2023-05-08T10:58:37.677Z,3.85
2023-05-08T11:01:08.200Z,2.60
2023-05-08T11:03:50.909Z,4.32
2023-05-08T11:06:38.633Z,3.47
2023-05-08T11:09:05.619Z,1.95
2023-05-08T11:11:38.192Z,2.05
2023-05-08T11:14:08.179Z,2.22
2023-05-08T11:16:53.746Z,2.45
2023-05-08T11:19:21.793Z,3.20
2023-05-08T11:22:16.870Z,4.10
2023-05-08T11:25:03.627Z,2.70
2023-05-08T11:27:48.578Z,2.72
2023-05-08T11:30:35.423Z,2.75
2023-05-08T11:33:05.608Z,3.00
2023-05-08T11:35:53.968Z,2.47
2023-05-08T11:38:35.791Z,3.42
2023-05-08T11:41:09.796Z,4.57
2023-05-08T11:44:09.743Z,4.68
2023-05-08T11:46:44.097Z,4.28
2023-05-08T11:49:14.371Z,3.60
2023-05-08T11:51:45.024Z,3.83
2023-05-08T11:54:17.480Z,3.28
2023-05-08T11:56:51.709Z,2.55
2023-05-08T11:59:19.594Z,2.78
2023-05-08T12:02:06.923Z,4.70
2023-05-08T12:04:47.176Z,2.70
2023-05-08T12:07:15.545Z,2.92
2023-05-08T12:09:42.865Z,2.22
2023-05-08T12:12:09.748Z,4.00
2023-05-08T12:14:36.640Z,1.85
2023-05-08T12:17:03.793Z,2.17
2023-05-08T12:19:30.700Z,1.70
2023-05-08T12:21:58.246Z,2.85
2023-05-08T12:24:26.287Z,2.75
2023-05-08T12:26:56.634Z,2.00
2023-05-08T12:29:23.919Z,1.77
2023-05-08T12:31:51.800Z,4.43
2023-05-08T12:34:18.924Z,1.73
2023-05-08T12:36:45.809Z,1.73
2023-05-08T12:39:14.000Z,2.30
2023-05-08T12:41:49.198Z,3.08
2023-05-08T12:44:20.886Z,3.30
2023-05-08T12:46:50.947Z,2.72
2023-05-08T12:49:31.731Z,3.80
2023-05-08T12:52:09.359Z,4.32
2023-05-08T12:54:40.008Z,3.75
2023-05-08T12:57:11.800Z,3.55
2023-05-08T12:59:39.128Z,3.10
2023-05-08T13:02:16.187Z,3.83
2023-05-08T13:04:44.250Z,4.10
2023-05-08T13:07:11.752Z,3.47
2023-05-08T13:09:39.885Z,6.05
2023-05-08T13:12:07.040Z,4.97
2023-05-08T13:14:33.949Z,3.35
2023-05-08T13:17:00.952Z,3.75
2023-05-08T13:19:27.828Z,3.45
2023-05-08T13:21:54.783Z,4.97
2023-05-08T13:24:21.596Z,4.57
2023-05-08T13:26:48.499Z,4.35
2023-05-08T13:29:15.508Z,3.88
2023-05-08T13:31:42.409Z,6.72
2023-05-08T13:34:10.036Z,4.15
2023-05-08T13:36:36.995Z,5.50
2023-05-08T13:39:03.926Z,4.78
2023-05-08T13:41:31.168Z,4.05
2023-05-08T13:43:58.116Z,5.30
2023-05-08T13:46:25.349Z,5.03
2023-05-08T13:48:52.247Z,5.43
2023-05-08T13:51:19.110Z,5.28
2023-05-08T13:53:46.404Z,5.25
2023-05-08T13:56:13.264Z,6.00
2023-05-08T13:58:40.365Z,5.05
2023-05-08T14:01:24.995Z,5.00
2023-05-08T14:03:54.343Z,4.85
2023-05-08T14:06:21.497Z,4.80
2023-05-08T14:08:51.003Z,4.97
2023-05-08T14:11:19.205Z,6.85
2023-05-08T14:13:46.456Z,5.18
2023-05-08T14:16:15.118Z,5.05
2023-05-08T14:18:42.115Z,5.72
2023-05-08T14:21:08.959Z,6.32
2023-05-08T14:23:35.996Z,4.90
2023-05-08T14:26:03.073Z,6.63
2023-05-08T14:28:30.508Z,6.20
2023-05-08T14:30:57.822Z,4.72
2023-05-08T14:33:25.132Z,5.40
2023-05-08T14:35:52.382Z,5.60
2023-05-08T14:38:19.250Z,6.13
2023-05-08T14:40:46.115Z,8.90
2023-05-08T14:43:13.305Z,9.15
2023-05-08T14:45:40.122Z,8.40
2023-05-08T14:48:07.144Z,8.60
2023-05-08T14:50:34.505Z,8.27
2023-05-08T14:53:01.486Z,7.43
2023-05-08T14:55:28.495Z,7.97
2023-05-08T14:57:56.381Z,7.90
2023-05-08T15:00:23.766Z,8.05
2023-05-08T15:02:50.710Z,8.57
2023-05-08T15:05:19.928Z,7.60
2023-05-08T15:07:47.446Z,7.10
2023-05-08T15:10:14.327Z,9.18
2023-05-08T15:12:49.812Z,7.90
2023-05-08T15:15:17.165Z,7.40
2023-05-08T15:17:44.241Z,14.57
2023-05-08T15:20:11.510Z,10.35
2023-05-08T15:22:38.886Z,8.10
2023-05-08T15:25:07.074Z,8.63
2023-05-08T15:27:34.420Z,8.85
2023-05-08T15:30:01.429Z,11.65
2023-05-08T15:32:28.381Z,10.25
2023-05-08T15:34:56.051Z,6.80
2023-05-08T15:37:23.038Z,6.38
2023-05-08T15:39:50.271Z,9.15
2023-05-08T15:42:17.191Z,8.55
2023-05-08T15:44:54.653Z,7.47
2023-05-08T15:47:23.371Z,6.95
2023-05-08T15:49:51.188Z,6.88
2023-05-08T15:52:19.781Z,10.32
2023-05-08T15:54:47.628Z,9.20
2023-05-08T15:57:15.541Z,9.52
2023-05-08T15:59:42.873Z,10.13
2023-05-08T16:02:10.253Z,8.98
2023-05-08T16:04:37.142Z,9.73
2023-05-08T16:07:04.499Z,12.02
2023-05-08T16:09:32.017Z,12.05
2023-05-08T16:11:59.042Z,9.48
2023-05-08T16:14:26.327Z,10.60
2023-05-08T16:16:53.229Z,10.63
2023-05-08T16:19:20.266Z,10.05
2023-05-08T16:21:47.937Z,10.10
2023-05-08T16:24:15.241Z,9.48
2023-05-08T16:26:42.524Z,10.02
2023-05-08T16:29:09.401Z,9.57
2023-05-08T16:31:36.380Z,13.80
2023-05-08T16:34:03.292Z,11.55
2023-05-08T16:36:30.230Z,11.52
2023-05-08T16:38:57.157Z,10.05
2023-05-08T16:41:24.106Z,11.07
2023-05-08T16:43:51.034Z,14.68
2023-05-08T16:46:29.052Z,10.32
2023-05-08T16:48:56.735Z,10.63
2023-05-08T16:51:23.622Z,10.00
2023-05-08T16:53:50.744Z,14.68
2023-05-08T16:56:17.690Z,12.18
2023-05-08T16:58:45.096Z,9.48
2023-05-08T17:01:12.037Z,10.93
2023-05-08T17:03:39.083Z,10.25
2023-05-08T17:06:07.642Z,11.98
2023-05-08T17:08:34.770Z,11.00
2023-05-08T17:11:01.782Z,10.27
2023-05-08T17:13:28.808Z,9.80
2023-05-08T17:15:55.720Z,10.98
2023-05-08T17:18:23.384Z,10.05
2023-05-08T17:20:51.143Z,8.48
2023-05-08T17:23:18.053Z,8.10
2023-05-08T17:25:44.980Z,8.48
2023-05-08T17:28:12.082Z,8.63
2023-05-08T17:30:39.090Z,6.82
2023-05-08T17:33:07.220Z,7.22
2023-05-08T17:35:34.340Z,7.82
2023-05-08T17:38:01.257Z,7.53
2023-05-08T17:40:28.903Z,8.68
2023-05-08T17:42:55.903Z,10.75
2023-05-08T17:45:22.840Z,9.27
2023-05-08T17:47:52.832Z,11.93
2023-05-08T17:50:20.022Z,29.02
2023-05-08T17:52:47.305Z,30.77
2023-05-08T17:55:14.581Z,26.35
2023-05-08T17:57:41.416Z,17.88
2023-05-08T18:00:09.317Z,11.10
2023-05-08T18:02:36.818Z,10.70
2023-05-08T18:05:03.953Z,11.30
2023-05-08T18:07:30.890Z,14.25
2023-05-08T18:09:58.389Z,14.88
2023-05-08T18:12:25.411Z,17.08
2023-05-08T18:14:52.307Z,19.23
2023-05-08T18:17:21.900Z,18.38
2023-05-08T18:19:49.192Z,19.00
2023-05-08T18:22:16.125Z,18.45
2023-05-08T18:24:43.233Z,18.95
2023-05-08T18:27:10.081Z,18.73
2023-05-08T18:29:36.943Z,17.27
2023-05-08T18:32:04.118Z,15.00
2023-05-08T18:34:32.898Z,21.63
2023-05-08T18:37:00.182Z,23.58
2023-05-08T18:39:27.453Z,30.17
2023-05-08T18:41:57.091Z,20.58
2023-05-08T18:44:23.933Z,15.07
2023-05-08T18:46:50.860Z,14.85
2023-05-08T18:49:17.729Z,14.07
2023-05-08T18:51:44.967Z,14.85
2023-05-08T18:54:11.822Z,13.60
2023-05-08T18:56:39.100Z,13.45
2023-05-08T18:59:05.992Z,14.73
2023-05-08T19:01:32.897Z,14.25
2023-05-08T19:04:00.436Z,14.75
2023-05-08T19:06:27.472Z,13.73
2023-05-08T19:08:54.410Z,14.15
2023-05-08T19:11:21.922Z,16.63
2023-05-08T19:13:50.142Z,17.88
2023-05-08T19:16:17.072Z,23.52
2023-05-08T19:18:43.931Z,24.25
2023-05-08T19:21:10.859Z,19.23
2023-05-08T19:23:37.845Z,16.00
2023-05-08T19:26:04.697Z,14.35
2023-05-08T19:28:31.985Z,15.48
2023-05-08T19:30:59.059Z,13.38
2023-05-08T19:33:26.111Z,19.25
2023-05-08T19:35:53.042Z,17.08
2023-05-08T19:38:20.042Z,14.90
2023-05-08T19:40:56.699Z,15.40
2023-05-08T19:43:25.089Z,13.10
2023-05-08T19:45:52.304Z,13.85
2023-05-08T19:48:20.245Z,17.98
2023-05-08T19:50:47.782Z,11.57
2023-05-08T19:53:14.789Z,12.15
2023-05-08T19:55:41.749Z,11.93
2023-05-08T19:58:09.038Z,12.93
2023-05-08T20:00:35.974Z,14.95
2023-05-08T20:03:03.166Z,10.88
2023-05-08T20:05:30.565Z,12.23
2023-05-08T20:07:57.445Z,9.43
2023-05-08T20:10:24.475Z,12.05
2023-05-08T20:12:51.307Z,10.68
2023-05-08T20:15:18.333Z,11.82
2023-05-08T20:17:45.579Z,10.80
2023-05-08T20:20:13.069Z,11.10
2023-05-08T20:22:40.281Z,12.55
2023-05-08T20:25:07.316Z,11.18
2023-05-08T20:27:34.722Z,14.68
2023-05-08T20:30:02.142Z,14.57
2023-05-08T20:32:29.473Z,12.60
2023-05-08T20:34:56.409Z,14.27
2023-05-08T20:37:23.363Z,12.20
2023-05-08T20:39:50.256Z,14.95
2023-05-08T20:42:17.122Z,10.32
2023-05-08T20:44:43.982Z,10.90
2023-05-08T20:47:10.871Z,10.68
2023-05-08T20:49:37.735Z,14.38
2023-05-08T20:52:05.611Z,9.77
2023-05-08T20:54:32.662Z,11.32
2023-05-08T20:56:59.653Z,11.85
2023-05-08T20:59:26.459Z,10.02
2023-05-08T21:01:53.348Z,9.30
2023-05-08T21:04:20.253Z,11.38
2023-05-08T21:06:49.805Z,8.57
2023-05-08T21:09:17.581Z,10.02
2023-05-08T21:11:44.468Z,11.57
2023-05-08T21:14:11.273Z,8.60
2023-05-08T21:16:38.580Z,11.00
2023-05-08T21:19:05.488Z,8.85
2023-05-08T21:21:32.340Z,13.48
2023-05-08T21:23:59.693Z,10.50
2023-05-08T21:26:26.552Z,9.45
2023-05-08T21:28:53.830Z,8.60
2023-05-08T21:31:20.772Z,8.73
2023-05-08T21:33:50.888Z,9.15
2023-05-08T21:36:17.885Z,8.88
2023-05-08T21:38:44.714Z,11.05
2023-05-08T21:41:11.999Z,9.55
2023-05-08T21:43:39.231Z,11.32
2023-05-08T21:46:07.253Z,14.63
2023-05-08T21:48:34.437Z,15.15
2023-05-08T21:51:01.651Z,19.40
2023-05-08T21:53:28.580Z,17.63
2023-05-08T21:55:55.891Z,21.08
2023-05-08T21:58:22.819Z,13.75
2023-05-08T22:00:50.238Z,15.40
2023-05-08T22:03:18.310Z,16.75
2023-05-08T22:05:45.331Z,12.23
2023-05-08T22:08:12.261Z,12.23
2023-05-08T22:10:39.201Z,13.48
2023-05-08T22:13:07.549Z,14.48
2023-05-08T22:15:35.189Z,12.38
2023-05-08T22:18:03.017Z,14.18
2023-05-08T22:20:30.371Z,12.77
2023-05-08T22:22:57.268Z,11.65
2023-05-08T22:25:26.838Z,11.85
2023-05-08T22:27:53.887Z,15.60
2023-05-08T22:30:20.775Z,12.75
2023-05-08T22:32:57.685Z,12.02
2023-05-08T22:35:27.380Z,11.23
2023-05-08T22:37:55.036Z,11.63
2023-05-08T22:40:22.312Z,12.65
2023-05-08T22:42:51.342Z,15.52
2023-05-08T22:45:18.483Z,12.02
2023-05-08T22:47:45.936Z,12.07
2023-05-08T22:50:13.032Z,10.40
2023-05-08T22:52:40.040Z,12.18
2023-05-08T22:55:07.807Z,13.15
2023-05-08T22:57:34.835Z,12.30
2023-05-08T23:00:01.751Z,13.25
2023-05-08T23:02:33.206Z,10.68
2023-05-08T23:05:02.388Z,13.32
2023-05-08T23:07:30.011Z,12.10
2023-05-08T23:09:56.859Z,11.88
2023-05-08T23:12:23.848Z,12.88
2023-05-08T23:14:50.828Z,15.38
2023-05-08T23:17:17.718Z,11.45
2023-05-08T23:19:45.650Z,11.68
2023-05-08T23:22:13.118Z,13.38
2023-05-08T23:24:40.536Z,11.82
2023-05-08T23:27:07.866Z,11.93
2023-05-08T23:29:34.747Z,10.05
2023-05-08T23:32:01.631Z,10.90
2023-05-08T23:34:28.726Z,9.70
2023-05-08T23:36:55.744Z,12.18
2023-05-08T23:39:23.064Z,12.20
2023-05-08T23:41:49.884Z,10.13
2023-05-08T23:44:17.270Z,13.30
2023-05-08T23:46:44.172Z,10.07
2023-05-08T23:49:11.085Z,11.38
2023-05-08T23:51:38.118Z,11.15
2023-05-08T23:54:05.702Z,10.60
2023-05-08T23:56:32.779Z,10.40
2023-05-08T23:58:59.626Z,12.18
